Time;durP1;ratioP1;P1;durP2;ratioP2;P2;SDS_P1;SDS_P2;PMS_P1;PMS_P2;Temp;Humidity;BMP_temperature;BMP_pressure;BME280_temperature;BME280_humidity;BME280_pressure;Samples;Min_cycle;Max_cycle;Signal;HPM_P1;HPM_P2
2022/11/07 00:00:12;;;;;;;4.82;3.10;;;11.00;99.90;;;;;;5094839;28;20028;-66
2022/11/07 00:02:38;;;;;;;5.80;3.17;;;11.10;99.90;;;;;;5094319;28;20085;-66
2022/11/07 00:05:04;;;;;;;5.13;2.90;;;11.20;99.90;;;;;;5094634;28;20028;-66
2022/11/07 00:07:29;;;;;;;7.75;3.00;;;11.20;99.90;;;;;;5094850;28;20400;-65
2022/11/07 00:09:55;;;;;;;8.20;3.20;;;11.20;99.90;;;;;;5093183;28;20077;-66
2022/11/07 00:12:20;;;;;;;5.97;3.15;;;11.20;99.90;;;;;;5094688;28;20024;-66
2022/11/07 00:14:46;;;;;;;7.38;3.10;;;11.30;99.90;;;;;;5095237;28;20017;-66
2022/11/07 00:17:12;;;;;;;7.93;2.85;;;11.30;99.90;;;;;;5094151;28;20020;-56
2022/11/07 00:19:38;;;;;;;6.70;3.33;;;11.30;99.90;;;;;;5094611;28;20134;-58
2022/11/07 00:22:03;;;;;;;6.70;3.15;;;11.30;99.90;;;;;;5093558;28;20043;-60
2022/11/07 00:24:29;;;;;;;7.63;3.35;;;11.20;99.90;;;;;;5094552;28;20480;-56
2022/11/07 00:26:54;;;;;;;6.22;3.28;;;11.20;99.90;;;;;;5094556;28;20024;-57
2022/11/07 00:29:20;;;;;;;6.22;3.30;;;11.20;99.90;;;;;;5093507;28;20471;-54
2022/11/07 00:31:47;;;;;;;9.43;3.25;;;11.20;99.90;;;;;;5094432;28;20513;-58
2022/11/07 00:34:13;;;;;;;8.25;3.50;;;11.20;99.90;;;;;;5094068;28;20047;-56
2022/11/07 00:36:38;;;;;;;9.30;3.30;;;11.10;99.90;;;;;;5093932;28;20460;-58
2022/11/07 00:39:05;;;;;;;5.35;3.10;;;11.00;99.90;;;;;;5093597;28;20020;-58
2022/11/07 00:41:31;;;;;;;7.65;3.03;;;11.00;99.90;;;;;;5094405;28;20023;-58
2022/11/07 00:43:57;;;;;;;8.45;3.20;;;11.00;99.90;;;;;;5093710;28;20024;-58
2022/11/07 00:46:22;;;;;;;9.23;3.25;;;11.00;99.90;;;;;;5092381;28;20036;-59
2022/11/07 00:48:48;;;;;;;4.88;2.65;;;11.00;99.90;;;;;;5093823;28;20499;-63
2022/11/07 00:51:18;;;;;;;5.95;2.72;;;11.00;99.90;;;;;;5092533;28;20055;-58
2022/11/07 00:53:44;;;;;;;5.95;3.05;;;11.10;99.90;;;;;;5093184;28;20079;-58
2022/11/07 00:56:13;;;;;;;8.07;3.08;;;11.10;99.90;;;;;;5093797;28;20035;-56
2022/11/07 00:58:41;;;;;;;6.20;3.00;;;11.10;99.90;;;;;;5092046;28;20581;-56
2022/11/07 01:01:09;;;;;;;6.40;2.92;;;11.20;99.90;;;;;;5093564;28;20093;-58
2022/11/07 01:06:19;;;;;;;7.10;3.17;;;11.30;99.90;;;;;;5093138;28;20081;-57
2022/11/07 01:08:44;;;;;;;7.28;2.83;;;11.30;99.90;;;;;;5093645;28;20028;-60
2022/11/07 01:11:10;;;;;;;7.22;3.20;;;11.20;99.90;;;;;;5093535;28;20024;-56
2022/11/07 01:13:36;;;;;;;8.45;3.63;;;11.20;99.90;;;;;;5093024;28;20436;-58
2022/11/07 01:16:01;;;;;;;4.72;2.58;;;11.30;99.90;;;;;;5093543;28;20039;-57
2022/11/07 01:18:27;;;;;;;6.43;3.45;;;11.30;99.90;;;;;;5092694;28;20035;-55
2022/11/07 01:20:53;;;;;;;5.35;3.05;;;11.20;99.90;;;;;;5093658;28;20102;-57
2022/11/07 01:23:18;;;;;;;4.95;2.70;;;11.20;99.90;;;;;;5093214;28;20044;-57
2022/11/07 01:25:44;;;;;;;9.02;3.25;;;11.30;99.90;;;;;;5092811;28;20055;-56
2022/11/07 01:28:10;;;;;;;6.60;3.08;;;11.20;99.90;;;;;;5093210;28;20047;-57
2022/11/07 01:30:43;;;;;;;5.25;2.40;;;11.10;99.90;;;;;;5093600;28;20062;-53
2022/11/07 01:33:09;;;;;;;6.30;2.85;;;11.00;99.90;;;;;;5092596;28;20016;-58
2022/11/07 01:35:35;;;;;;;3.90;2.55;;;11.00;99.90;;;;;;5094840;28;20472;-56
2022/11/07 01:38:01;;;;;;;6.15;2.63;;;10.90;99.90;;;;;;5073230;28;20025;-56
2022/11/07 01:40:27;;;;;;;7.05;2.85;;;10.90;99.90;;;;;;5078790;28;20016;-56
2022/11/07 01:42:53;;;;;;;6.53;3.50;;;10.90;99.90;;;;;;5093318;28;20016;-58
2022/11/07 01:45:27;;;;;;;6.47;2.90;;;11.00;99.90;;;;;;5093038;28;20047;-57
2022/11/07 01:47:57;;;;;;;6.18;2.90;;;11.10;99.90;;;;;;5092610;28;20067;-60
2022/11/07 01:50:23;;;;;;;6.60;2.72;;;11.20;99.90;;;;;;5092945;28;20024;-53
2022/11/07 01:52:50;;;;;;;9.57;3.10;;;11.20;99.90;;;;;;5095943;28;20036;-61
2022/11/07 01:55:31;;;;;;;9.55;3.17;;;11.30;99.90;;;;;;5100951;28;20153;-56
2022/11/07 01:58:04;;;;;;;7.68;2.67;;;11.40;99.90;;;;;;5092799;28;20117;-57
2022/11/07 02:00:31;;;;;;;7.07;3.05;;;11.40;99.90;;;;;;5071909;28;20024;-62
2022/11/07 02:03:01;;;;;;;6.50;2.92;;;11.50;99.90;;;;;;5072403;28;20024;-60
2022/11/07 02:05:32;;;;;;;8.25;3.67;;;11.50;99.90;;;;;;5072545;28;20110;-58
2022/11/07 02:07:58;;;;;;;9.02;2.97;;;11.50;99.90;;;;;;5070986;28;20163;-54
2022/11/07 02:10:25;;;;;;;8.60;2.42;;;11.50;99.90;;;;;;5071296;28;20495;-55
2022/11/07 02:12:51;;;;;;;5.82;2.75;;;11.50;99.90;;;;;;5077763;28;20024;-59
2022/11/07 02:15:17;;;;;;;7.85;2.63;;;11.50;99.90;;;;;;5080012;28;20024;-63
2022/11/07 02:17:43;;;;;;;7.43;3.03;;;11.60;99.90;;;;;;5092815;28;20024;-66
2022/11/07 02:20:09;;;;;;;6.18;2.50;;;11.50;99.90;;;;;;5092095;28;20426;-64
2022/11/07 02:23:05;;;;;;;6.40;2.83;;;11.40;99.90;;;;;;5089780;28;20056;-61
2022/11/07 02:25:31;;;;;;;6.47;2.70;;;11.40;99.90;;;;;;5091623;28;20056;-66
2022/11/07 02:27:58;;;;;;;6.65;2.85;;;11.40;99.90;;;;;;5091339;28;20027;-66
2022/11/07 02:30:30;;;;;;;7.22;3.00;;;11.30;99.90;;;;;;5091517;28;20252;-66
2022/11/07 02:32:55;;;;;;;8.73;2.83;;;11.30;99.90;;;;;;5091452;28;20154;-57
2022/11/07 02:35:42;;;;;;;9.98;2.90;;;11.30;99.90;;;;;;5092123;28;20511;-57
2022/11/07 02:38:30;;;;;;;6.00;2.90;;;11.30;99.90;;;;;;5091787;28;20059;-57
2022/11/07 02:41:01;;;;;;;8.18;2.83;;;11.30;99.90;;;;;;5092094;28;20023;-56
2022/11/07 02:43:30;;;;;;;14.93;3.92;;;11.20;99.90;;;;;;5091357;28;20169;-57
2022/11/07 02:45:59;;;;;;;9.43;2.90;;;11.20;99.90;;;;;;5091816;28;20032;-58
2022/11/07 02:48:29;;;;;;;6.53;3.05;;;11.10;99.90;;;;;;5091637;28;20825;-60
2022/11/07 02:50:55;;;;;;;6.57;3.05;;;11.00;99.90;;;;;;5090001;28;20032;-57
2022/11/07 02:53:21;;;;;;;7.68;2.92;;;11.00;99.90;;;;;;5090327;28;20024;-57
2022/11/07 02:55:47;;;;;;;9.95;3.00;;;11.00;99.90;;;;;;5091835;28;20024;-57
2022/11/07 02:58:12;;;;;;;14.15;3.20;;;11.10;99.90;;;;;;5083208;28;20012;-58
2022/11/07 03:00:38;;;;;;;8.02;2.83;;;11.10;99.90;;;;;;5071435;28;20052;-56
2022/11/07 03:03:03;;;;;;;5.97;2.95;;;11.20;99.90;;;;;;5071575;28;20477;-54
2022/11/07 03:05:29;;;;;;;10.40;4.40;;;11.10;99.90;;;;;;5070745;28;20044;-57
2022/11/07 03:07:54;;;;;;;10.45;3.00;;;11.10;99.90;;;;;;5071614;28;20021;-55
2022/11/07 03:10:20;;;;;;;6.80;3.15;;;11.20;99.90;;;;;;5071150;28;20032;-56
2022/11/07 03:12:46;;;;;;;10.80;3.15;;;11.20;99.90;;;;;;5074611;28;20024;-56
2022/11/07 03:15:12;;;;;;;10.70;3.65;;;11.20;99.90;;;;;;5091385;28;20503;-55
2022/11/07 03:17:38;;;;;;;8.57;3.45;;;11.10;99.90;;;;;;5090664;28;20024;-54
2022/11/07 03:20:04;;;;;;;9.70;2.72;;;11.10;99.90;;;;;;5090630;28;20353;-60
2022/11/07 03:22:30;;;;;;;6.13;2.88;;;11.00;99.90;;;;;;5091313;28;20048;-57
2022/11/07 03:24:55;;;;;;;9.05;2.92;;;11.00;99.90;;;;;;5090743;28;20035;-56
2022/11/07 03:27:21;;;;;;;10.05;3.22;;;11.00;99.90;;;;;;5090726;28;20012;-55
2022/11/07 03:29:46;;;;;;;8.63;3.17;;;11.00;99.90;;;;;;5091326;28;20028;-55
2022/11/07 03:32:12;;;;;;;7.90;3.85;;;11.00;99.90;;;;;;5075617;28;20089;-55
2022/11/07 03:34:38;;;;;;;6.43;3.03;;;10.90;99.90;;;;;;5074246;28;20106;-53
2022/11/07 03:37:04;;;;;;;9.52;3.85;;;10.80;99.90;;;;;;5091276;28;20024;-56
2022/11/07 03:39:29;;;;;;;7.60;3.25;;;10.70;99.90;;;;;;5090540;28;20028;-55
2022/11/07 03:41:55;;;;;;;5.82;3.35;;;10.60;99.90;;;;;;5090980;28;20091;-55
2022/11/07 03:44:21;;;;;;;6.00;3.25;;;10.60;99.90;;;;;;5090742;28;20032;-52
2022/11/07 03:46:46;;;;;;;7.82;2.60;;;10.60;99.90;;;;;;5090493;28;20020;-53
2022/11/07 03:49:12;;;;;;;7.72;3.28;;;10.60;99.90;;;;;;5090080;28;20087;-57
2022/11/07 03:51:37;;;;;;;4.72;2.88;;;10.50;99.90;;;;;;5091021;28;20028;-56
2022/11/07 03:54:03;;;;;;;11.25;3.40;;;10.50;99.90;;;;;;5078609;28;20386;-57
2022/11/07 03:56:29;;;;;;;7.20;2.95;;;10.50;99.90;;;;;;5087553;28;20111;-57
2022/11/07 03:58:54;;;;;;;9.55;4.78;;;10.60;99.90;;;;;;5091351;28;20020;-56
2022/11/07 04:01:20;;;;;;;11.85;4.05;;;10.60;99.90;;;;;;5089933;28;20330;-56
2022/11/07 04:03:45;;;;;;;10.27;3.30;;;10.70;99.90;;;;;;5091002;28;20093;-56
2022/11/07 04:06:11;;;;;;;8.57;3.15;;;10.80;99.90;;;;;;5103301;28;20061;-57
2022/11/07 04:08:37;;;;;;;7.32;2.75;;;10.80;99.90;;;;;;5090041;28;20024;-57
2022/11/07 04:11:02;;;;;;;10.13;2.58;;;10.90;99.90;;;;;;5089556;28;20065;-61
2022/11/07 04:18:57;;;;;;;7.70;2.90;;;11.00;99.90;;;;;;5091292;28;20070;-65
2022/11/07 04:21:22;;;;;;;11.07;2.58;;;11.00;99.90;;;;;;5090350;28;20841;-65
2022/11/07 04:23:48;;;;;;;9.18;2.95;;;11.00;99.90;;;;;;5090901;28;20123;-63
2022/11/07 04:28:58;;;;;;;10.70;3.28;;;11.10;99.90;;;;;;5090580;28;20063;-66
2022/11/07 04:31:23;;;;;;;9.48;2.78;;;11.10;99.90;;;;;;5090589;28;20032;-65
2022/11/07 04:33:49;;;;;;;6.72;2.83;;;11.10;99.90;;;;;;5089770;28;20028;-65
2022/11/07 04:36:14;;;;;;;7.43;2.72;;;11.20;99.90;;;;;;5089750;28;20452;-66
2022/11/07 04:38:40;;;;;;;7.90;2.90;;;11.20;99.90;;;;;;5093171;28;20103;-64
2022/11/07 04:41:05;;;;;;;7.35;2.63;;;11.20;99.90;;;;;;5094638;28;20464;-65
2022/11/07 04:43:31;;;;;;;8.80;2.75;;;11.20;99.90;;;;;;5094245;28;20399;-65
2022/11/07 04:45:56;;;;;;;6.82;2.38;;;11.20;99.90;;;;;;5094472;28;20050;-54
2022/11/07 04:48:22;;;;;;;10.32;2.90;;;11.20;99.90;;;;;;5094081;28;20383;-56
2022/11/07 04:50:48;;;;;;;8.50;3.15;;;11.20;99.90;;;;;;5093936;28;20097;-57
2022/11/07 04:53:16;;;;;;;10.25;2.90;;;11.20;99.90;;;;;;5092537;28;20024;-54
2022/11/07 04:55:42;;;;;;;6.45;2.67;;;11.20;99.90;;;;;;5094502;28;20107;-56
2022/11/07 04:58:09;;;;;;;7.88;2.67;;;11.20;99.90;;;;;;5093311;28;20023;-56
2022/11/07 05:00:35;;;;;;;10.63;3.03;;;11.20;99.90;;;;;;5094453;28;20041;-61
2022/11/07 05:03:01;;;;;;;6.28;2.30;;;11.30;99.90;;;;;;5093859;28;20103;-57
2022/11/07 05:05:26;;;;;;;8.20;2.75;;;11.30;99.90;;;;;;5091879;28;20119;-55
2022/11/07 05:07:52;;;;;;;8.75;2.70;;;11.30;99.90;;;;;;5093828;28;20024;-57
2022/11/07 05:10:19;;;;;;;11.68;3.63;;;11.30;99.90;;;;;;5093634;28;20031;-57
2022/11/07 05:12:45;;;;;;;10.35;2.47;;;11.30;99.90;;;;;;5093139;28;20357;-55
2022/11/07 05:15:11;;;;;;;7.93;2.67;;;11.30;99.90;;;;;;5093629;28;20376;-56
2022/11/07 05:17:37;;;;;;;9.55;2.97;;;11.40;99.90;;;;;;5093190;28;20032;-58
2022/11/07 05:20:02;;;;;;;4.65;2.20;;;11.40;99.90;;;;;;5093805;28;20027;-56
2022/11/07 05:25:12;;;;;;;5.80;2.38;;;11.40;99.90;;;;;;5092584;28;20128;-57
2022/11/07 05:27:38;;;;;;;6.63;2.47;;;11.50;99.90;;;;;;5102910;28;20107;-56
2022/11/07 05:30:05;;;;;;;9.20;2.45;;;11.40;99.90;;;;;;5076658;28;20017;-51
2022/11/07 05:32:32;;;;;;;9.30;2.80;;;11.50;99.90;;;;;;5074267;28;20051;-54
2022/11/07 05:34:58;;;;;;;8.77;2.33;;;11.50;99.90;;;;;;5093419;28;20012;-58
2022/11/07 05:37:23;;;;;;;7.72;2.33;;;11.50;99.90;;;;;;5092969;28;20487;-55
2022/11/07 05:39:49;;;;;;;4.55;2.13;;;11.50;99.90;;;;;;5091145;28;20024;-53
2022/11/07 05:42:14;;;;;;;8.85;2.47;;;11.50;99.90;;;;;;5082249;28;20028;-56
2022/11/07 05:44:40;;;;;;;10.43;2.28;;;11.50;99.90;;;;;;5090813;28;20036;-56
2022/11/07 05:47:05;;;;;;;7.57;2.33;;;11.60;99.90;;;;;;5101402;28;20027;-57
2022/11/07 05:49:31;;;;;;;10.63;2.92;;;11.50;99.90;;;;;;5111466;28;20019;-56
2022/11/07 05:51:56;;;;;;;9.55;2.80;;;11.60;99.90;;;;;;5113673;28;20023;-58
2022/11/07 05:54:23;;;;;;;8.88;2.53;;;11.60;99.90;;;;;;5112295;28;20020;-57
2022/11/07 05:56:49;;;;;;;6.68;2.42;;;11.60;99.90;;;;;;5090468;28;20036;-58
2022/11/07 05:59:14;;;;;;;11.80;3.15;;;11.60;99.90;;;;;;5072336;28;20390;-57
2022/11/07 06:01:40;;;;;;;11.52;2.55;;;11.60;99.90;;;;;;5071763;28;20470;-57
2022/11/07 06:04:06;;;;;;;8.70;2.58;;;11.60;99.90;;;;;;5072450;28;20369;-55
2022/11/07 06:06:32;;;;;;;6.60;2.53;;;11.60;99.90;;;;;;5079829;28;20107;-57
2022/11/07 06:08:58;;;;;;;7.45;2.65;;;11.70;99.90;;;;;;5092410;28;20433;-60
2022/11/07 06:11:23;;;;;;;12.80;2.90;;;11.70;99.90;;;;;;5092851;28;20035;-65
2022/11/07 06:13:49;;;;;;;10.98;3.13;;;11.70;99.90;;;;;;5092207;28;20043;-65
2022/11/07 06:16:15;;;;;;;9.77;2.75;;;11.70;99.90;;;;;;5087732;28;20130;-65
2022/11/07 06:18:40;;;;;;;6.47;2.63;;;11.70;99.90;;;;;;5091087;28;20028;-66
2022/11/07 06:21:06;;;;;;;7.93;2.88;;;11.70;99.90;;;;;;5089642;28;20020;-64
2022/11/07 06:23:32;;;;;;;9.10;2.75;;;11.70;99.90;;;;;;5091946;28;20044;-63
2022/11/07 06:25:58;;;;;;;10.43;2.42;;;11.70;99.90;;;;;;5092605;28;20499;-62
2022/11/07 06:28:23;;;;;;;8.13;2.45;;;11.60;99.90;;;;;;5091416;28;20072;-65
2022/11/07 06:30:49;;;;;;;11.05;2.50;;;11.60;99.90;;;;;;5089487;28;20029;-65
2022/11/07 06:33:16;;;;;;;6.75;2.45;;;11.60;99.90;;;;;;5092031;28;20460;-66
2022/11/07 06:35:42;;;;;;;9.20;3.22;;;11.70;99.90;;;;;;5092342;28;20491;-63
2022/11/07 06:38:10;;;;;;;7.78;2.17;;;11.70;99.90;;;;;;5094544;28;20055;-65
2022/11/07 06:40:36;;;;;;;11.95;2.40;;;11.70;99.90;;;;;;5089810;28;20051;-65
2022/11/07 06:43:06;;;;;;;5.93;2.20;;;11.70;99.90;;;;;;5090517;28;20540;-66
2022/11/07 06:45:31;;;;;;;9.15;2.65;;;11.70;99.90;;;;;;5093122;28;20044;-65
2022/11/07 06:47:57;;;;;;;12.80;2.63;;;11.70;99.90;;;;;;5091818;28;20019;-65
2022/11/07 06:50:22;;;;;;;9.20;2.58;;;11.80;99.90;;;;;;5089851;28;20107;-65
2022/11/07 06:52:48;;;;;;;9.93;2.30;;;11.80;99.90;;;;;;5091856;28;20028;-61
2022/11/07 06:55:14;;;;;;;6.70;2.55;;;11.80;99.90;;;;;;5091539;28;20541;-66
2022/11/07 06:57:39;;;;;;;13.65;2.63;;;11.80;99.90;;;;;;5089686;28;20017;-65
2022/11/07 07:00:05;;;;;;;8.00;2.75;;;11.80;99.90;;;;;;5091288;28;20036;-60
2022/11/07 07:02:31;;;;;;;7.35;2.75;;;11.80;99.90;;;;;;5090321;28;20024;-57
2022/11/07 07:04:56;;;;;;;11.15;3.33;;;11.80;99.90;;;;;;5092459;28;20032;-55
2022/11/07 07:07:22;;;;;;;11.45;2.75;;;11.80;99.90;;;;;;5090655;28;20034;-56
2022/11/07 07:09:47;;;;;;;5.25;2.30;;;11.80;99.90;;;;;;5090119;28;20036;-59
2022/11/07 07:12:13;;;;;;;8.73;2.78;;;11.80;99.90;;;;;;5089063;28;20028;-57
2022/11/07 07:14:39;;;;;;;9.65;2.38;;;11.80;99.90;;;;;;5091483;28;20088;-61
2022/11/07 07:17:04;;;;;;;11.18;2.72;;;11.80;99.90;;;;;;5090439;28;20016;-57
2022/11/07 07:19:30;;;;;;;9.60;2.70;;;11.80;99.90;;;;;;5087714;28;20552;-60
2022/11/07 07:21:55;;;;;;;11.13;2.20;;;11.80;99.90;;;;;;5070958;28;20434;-61
2022/11/07 07:24:21;;;;;;;13.20;2.83;;;11.70;99.90;;;;;;5069827;28;20063;-57
2022/11/07 07:26:46;;;;;;;13.18;2.50;;;11.80;99.90;;;;;;5089426;28;20035;-57
2022/11/07 07:29:12;;;;;;;10.80;2.80;;;11.80;99.90;;;;;;5090618;28;20380;-58
2022/11/07 07:31:37;;;;;;;11.05;2.75;;;11.90;99.90;;;;;;5090268;28;20099;-55
2022/11/07 07:34:03;;;;;;;8.88;2.20;;;11.90;99.90;;;;;;5090991;28;20093;-56
2022/11/07 07:36:29;;;;;;;8.90;3.00;;;12.00;99.90;;;;;;5091615;28;20477;-57
2022/11/07 07:38:54;;;;;;;8.95;2.85;;;12.00;99.90;;;;;;5090703;28;20523;-58
2022/11/07 07:41:20;;;;;;;13.00;2.63;;;12.10;99.90;;;;;;5088966;28;20031;-53
2022/11/07 07:43:45;;;;;;;5.82;2.58;;;12.20;99.90;;;;;;5090364;28;20028;-58
2022/11/07 07:46:18;;;;;;;9.63;2.78;;;12.20;99.90;;;;;;5089700;28;20031;-57
2022/11/07 07:48:43;;;;;;;5.40;3.08;;;12.30;99.90;;;;;;5090883;28;20502;-57
2022/11/07 07:51:09;;;;;;;10.43;2.40;;;12.30;99.90;;;;;;5091061;28;20026;-57
2022/11/07 07:53:35;;;;;;;8.90;2.42;;;12.30;99.90;;;;;;5086763;28;20379;-58
2022/11/07 07:56:04;;;;;;;10.35;2.40;;;12.30;99.90;;;;;;5082346;28;20024;-57
2022/11/07 07:58:30;;;;;;;11.48;3.05;;;12.30;99.90;;;;;;5090960;28;20070;-56
2022/11/07 08:00:58;;;;;;;6.63;2.33;;;12.40;99.90;;;;;;5074700;28;20021;-58
2022/11/07 08:03:25;;;;;;;10.00;2.55;;;12.40;99.90;;;;;;5088770;28;20028;-57
2022/11/07 08:05:56;;;;;;;8.98;3.38;;;12.40;99.90;;;;;;5092076;28;20485;-63
2022/11/07 08:08:22;;;;;;;9.77;2.37;;;12.50;99.90;;;;;;5092245;28;20035;-64
2022/11/07 08:10:53;;;;;;;10.25;2.60;;;12.60;99.90;;;;;;5091149;28;20266;-64
2022/11/07 08:13:23;;;;;;;11.85;2.58;;;12.50;99.90;;;;;;5091163;28;20020;-65
2022/11/07 08:15:50;;;;;;;8.57;2.45;;;12.60;99.90;;;;;;5095085;28;21082;-60
2022/11/07 08:18:17;;;;;;;7.82;2.78;;;12.60;99.90;;;;;;5094915;28;20024;-64
2022/11/07 08:20:42;;;;;;;11.20;2.95;;;12.60;99.90;;;;;;5094220;28;20024;-64
2022/11/07 08:23:09;;;;;;;8.65;2.35;;;12.70;99.90;;;;;;5091464;28;20040;-64
2022/11/07 08:25:35;;;;;;;10.73;2.50;;;12.70;99.90;;;;;;5086105;28;20035;-65
2022/11/07 08:28:01;;;;;;;6.50;2.22;;;12.80;99.90;;;;;;5098214;28;20115;-64
2022/11/07 08:30:27;;;;;;;11.13;2.92;;;12.80;99.90;;;;;;5095745;28;20111;-61
2022/11/07 08:32:53;;;;;;;7.35;2.10;;;12.90;99.90;;;;;;5096171;28;20020;-65
2022/11/07 08:35:19;;;;;;;6.43;1.90;;;12.90;99.90;;;;;;5095209;28;20028;-63
2022/11/07 08:37:44;;;;;;;9.88;2.85;;;12.90;99.90;;;;;;5094193;28;20357;-64
2022/11/07 08:40:11;;;;;;;10.80;3.00;;;12.90;99.90;;;;;;5094514;28;20470;-65
2022/11/07 08:42:36;;;;;;;8.95;2.63;;;13.00;99.90;;;;;;5093994;28;20487;-65
2022/11/07 08:45:03;;;;;;;7.45;2.50;;;13.00;99.90;;;;;;5094441;28;20108;-64
2022/11/07 08:47:29;;;;;;;5.22;2.35;;;13.00;99.90;;;;;;5094179;28;20058;-64
2022/11/07 08:49:54;;;;;;;9.43;2.30;;;13.10;99.90;;;;;;5093699;28;20410;-64
2022/11/07 08:52:20;;;;;;;8.98;2.35;;;13.10;99.90;;;;;;5094617;28;20028;-65
2022/11/07 08:54:45;;;;;;;7.80;2.13;;;13.20;99.90;;;;;;5095764;28;20024;-65
2022/11/07 08:57:11;;;;;;;7.93;2.50;;;13.20;99.90;;;;;;5093620;28;20104;-64
2022/11/07 08:59:36;;;;;;;8.25;2.30;;;13.20;99.90;;;;;;5095848;28;20460;-66
2022/11/07 09:02:02;;;;;;;7.28;2.03;;;13.30;99.90;;;;;;5095733;28;20415;-66
2022/11/07 09:04:28;;;;;;;11.10;2.35;;;13.30;99.90;;;;;;5094154;28;20353;-65
2022/11/07 09:06:56;;;;;;;8.05;1.85;;;13.30;99.90;;;;;;5095565;28;20024;-60
2022/11/07 09:09:22;;;;;;;7.93;1.73;;;13.40;99.90;;;;;;5095389;28;20020;-62
2022/11/07 09:11:47;;;;;;;6.38;1.95;;;13.50;99.90;;;;;;5094659;28;20032;-60
2022/11/07 09:14:13;;;;;;;8.68;1.92;;;13.50;99.90;;;;;;5095012;28;20024;-60
2022/11/07 09:16:39;;;;;;;7.35;2.22;;;13.60;99.90;;;;;;5094959;28;20032;-65
2022/11/07 09:19:04;;;;;;;9.52;2.25;;;13.60;99.90;;;;;;5094252;28;20052;-58
2022/11/07 09:21:30;;;;;;;6.30;2.05;;;13.60;99.90;;;;;;5094847;28;20070;-60
2022/11/07 09:23:55;;;;;;;6.10;1.95;;;13.70;99.90;;;;;;5093172;28;20441;-61
2022/11/07 09:26:21;;;;;;;7.40;2.20;;;13.70;99.90;;;;;;5092242;28;20050;-57
2022/11/07 09:28:47;;;;;;;3.75;1.60;;;13.70;99.90;;;;;;5093287;28;20020;-57
2022/11/07 09:31:12;;;;;;;7.50;2.13;;;13.70;99.90;;;;;;5092512;28;20028;-58
2022/11/07 09:33:38;;;;;;;6.35;2.22;;;13.80;99.90;;;;;;5093009;28;20028;-58
2022/11/07 09:36:04;;;;;;;9.18;2.70;;;13.80;99.90;;;;;;5093073;28;20541;-60
2022/11/07 09:38:31;;;;;;;3.42;2.00;;;13.90;99.90;;;;;;5093101;28;20024;-54
2022/11/07 09:41:05;;;;;;;6.20;1.98;;;13.90;99.90;;;;;;5093871;28;20035;-59
2022/11/07 09:43:53;;;;;;;8.82;3.10;;;14.00;99.90;;;;;;5092804;28;20021;-57
2022/11/07 09:46:25;;;;;;;7.97;2.58;;;14.00;99.90;;;;;;5091651;28;20430;-57
2022/11/07 09:48:58;;;;;;;9.80;2.58;;;14.00;99.90;;;;;;5092849;28;20123;-59
2022/11/07 09:51:37;;;;;;;7.03;2.38;;;14.10;99.90;;;;;;5092676;28;20020;-61
2022/11/07 09:54:17;;;;;;;9.77;2.67;;;14.10;99.90;;;;;;5091255;28;20028;-59
2022/11/07 09:56:43;;;;;;;7.43;2.08;;;14.00;99.90;;;;;;5095788;28;20056;-58
2022/11/07 09:59:26;;;;;;;9.77;3.08;;;14.00;99.90;;;;;;5093025;28;20105;-57
2022/11/07 10:01:52;;;;;;;9.73;2.25;;;14.00;99.90;;;;;;5086419;28;20036;-60
2022/11/07 10:04:20;;;;;;;5.03;2.00;;;14.00;99.90;;;;;;5092389;28;20039;-57
2022/11/07 10:06:51;;;;;;;6.55;2.10;;;14.10;99.90;;;;;;5087441;28;20024;-59
2022/11/07 10:09:26;;;;;;;9.02;2.10;;;14.00;99.90;;;;;;5073586;28;20028;-59
2022/11/07 10:12:07;;;;;;;8.57;2.22;;;14.10;99.90;;;;;;5072952;28;20056;-61
2022/11/07 10:14:54;;;;;;;8.07;1.58;;;14.10;99.90;;;;;;5077376;28;20021;-63
2022/11/07 10:17:46;;;;;;;11.50;2.80;;;14.20;99.90;;;;;;5093925;28;20116;-65
2022/11/07 10:20:28;;;;;;;8.32;2.30;;;14.20;99.90;;;;;;5069920;28;20060;-60
2022/11/07 10:23:17;;;;;;;7.38;2.17;;;14.30;99.90;;;;;;5082122;28;20043;-65
2022/11/07 10:26:19;;;;;;;9.02;2.00;;;14.30;99.90;;;;;;5091985;28;20060;-65
2022/11/07 10:28:52;;;;;;;8.80;1.80;;;14.40;99.90;;;;;;5068707;28;20115;-62
2022/11/07 10:31:18;;;;;;;8.40;2.35;;;14.30;99.90;;;;;;5089652;28;20488;-63
2022/11/07 10:33:46;;;;;;;7.35;2.38;;;14.30;99.90;;;;;;5092376;28;20062;-62
2022/11/07 10:36:17;;;;;;;11.15;2.95;;;14.30;99.90;;;;;;5091017;28;20042;-65
2022/11/07 10:38:43;;;;;;;7.72;2.08;;;14.40;99.90;;;;;;5093721;28;20073;-65
2022/11/07 10:41:23;;;;;;;7.38;1.88;;;14.30;99.90;;;;;;5090547;28;20031;-61
2022/11/07 10:44:03;;;;;;;5.97;2.00;;;14.40;99.90;;;;;;5091789;28;20024;-66
2022/11/07 10:46:39;;;;;;;9.48;2.00;;;14.30;99.90;;;;;;5071816;28;20472;-66
2022/11/07 10:49:19;;;;;;;9.77;2.53;;;14.30;99.90;;;;;;5070790;28;20104;-63
2022/11/07 10:51:45;;;;;;;6.30;2.10;;;14.20;99.90;;;;;;5072515;28;20060;-62
2022/11/07 10:54:25;;;;;;;6.78;2.63;;;14.20;99.90;;;;;;5091042;28;20496;-64
2022/11/07 10:57:04;;;;;;;8.23;2.00;;;14.30;99.90;;;;;;5091101;28;20016;-61
2022/11/07 10:59:32;;;;;;;10.45;2.90;;;14.20;99.90;;;;;;5091205;28;20084;-64
2022/11/07 11:01:59;;;;;;;6.53;1.90;;;14.30;99.90;;;;;;5099529;28;20023;-65
2022/11/07 11:04:27;;;;;;;9.00;2.20;;;14.30;99.90;;;;;;5110876;28;20112;-64
2022/11/07 11:07:02;;;;;;;7.63;1.98;;;14.30;99.90;;;;;;5098468;28;20055;-66
2022/11/07 11:09:30;;;;;;;9.23;2.22;;;14.30;99.90;;;;;;5092746;28;20387;-63
2022/11/07 11:11:56;;;;;;;7.88;2.38;;;14.40;99.90;;;;;;5091396;28;20594;-65
2022/11/07 11:14:22;;;;;;;10.10;2.58;;;14.40;99.90;;;;;;5090969;28;20499;-62
2022/11/07 11:16:54;;;;;;;5.65;1.73;;;14.50;99.90;;;;;;5090652;28;20024;-62
2022/11/07 11:19:25;;;;;;;4.57;1.90;;;14.50;99.90;;;;;;5090540;28;20016;-64
2022/11/07 11:21:54;;;;;;;9.43;2.75;;;14.60;99.90;;;;;;5090814;28;20065;-65
2022/11/07 11:24:29;;;;;;;8.13;2.08;;;14.60;99.90;;;;;;5088623;28;20024;-64
2022/11/07 11:26:57;;;;;;;4.13;2.20;;;14.60;99.90;;;;;;5100718;28;20054;-64
2022/11/07 11:29:33;;;;;;;8.25;1.90;;;14.60;99.90;;;;;;5099108;28;20050;-63
2022/11/07 11:32:00;;;;;;;7.35;2.20;;;14.60;99.90;;;;;;5090437;28;20028;-65
2022/11/07 11:34:48;;;;;;;9.20;2.33;;;14.80;99.90;;;;;;5090898;28;20033;-57
2022/11/07 11:37:19;;;;;;;6.57;2.10;;;14.80;99.90;;;;;;5089969;28;20024;-59
2022/11/07 11:39:50;;;;;;;10.18;2.30;;;14.90;99.90;;;;;;5107697;28;20028;-59
2022/11/07 11:42:42;;;;;;;8.18;2.40;;;15.00;99.90;;;;;;5094659;28;20024;-58
2022/11/07 11:45:14;;;;;;;;;;;15.00;99.60;;;;;;5090843;28;20062;-61
2022/11/07 11:47:46;;;;;;;7.80;1.85;;;15.00;99.50;;;;;;5090159;28;19904;-59
2022/11/07 11:50:26;;;;;;;9.85;1.85;;;15.00;99.30;;;;;;5088666;28;20012;-57
2022/11/07 11:52:52;;;;;;;7.75;2.10;;;15.00;99.40;;;;;;5088296;28;20035;-58
2022/11/07 11:55:22;;;;;;;6.00;2.10;;;14.90;99.40;;;;;;5087852;28;20104;-59
2022/11/07 11:58:14;;;;;;;8.05;1.85;;;14.80;99.40;;;;;;5088772;28;20035;-58
2022/11/07 12:00:50;;;;;;;11.32;2.08;;;14.80;99.40;;;;;;5087993;28;20487;-59
2022/11/07 12:03:55;;;;;;;8.20;2.17;;;14.90;99.50;;;;;;5088681;28;20025;-55
2022/11/07 12:06:37;;;;;;;6.45;2.08;;;15.00;99.40;;;;;;5086073;28;20059;-60
2022/11/07 12:09:14;;;;;;;6.45;2.03;;;15.00;99.20;;;;;;5088977;28;20547;-59
2022/11/07 12:12:15;;;;;;;10.30;2.42;;;15.10;99.10;;;;;;5087662;28;20043;-59
2022/11/07 12:14:43;;;;;;;7.60;2.20;;;15.20;98.90;;;;;;5089999;28;20028;-59
2022/11/07 12:17:21;;;;;;;8.10;2.70;;;15.20;98.60;;;;;;5092172;28;20032;-63
2022/11/07 12:20:02;;;;;;;11.13;2.85;;;15.20;98.70;;;;;;5073544;28;20023;-64
2022/11/07 12:23:00;;;;;;;9.45;2.53;;;15.20;98.70;;;;;;5075766;28;20146;-62
2022/11/07 12:25:42;;;;;;;10.38;2.58;;;15.20;98.70;;;;;;5078649;28;20044;-65
2022/11/07 12:28:29;;;;;;;;;;;15.20;98.70;;;;;;5074085;28;20028;-65
2022/11/07 12:31:29;;;;;;;9.88;2.35;;;15.30;98.70;;;;;;5086971;28;20387;-64
2022/11/07 12:34:39;;;;;;;7.13;1.85;;;15.30;98.50;;;;;;5051805;28;20040;-62
2022/11/07 12:37:42;;;;;;;7.28;1.85;;;15.30;98.50;;;;;;5052832;28;20047;-61
2022/11/07 12:40:40;;;;;;;10.25;2.53;;;15.30;98.40;;;;;;5083311;28;20103;-62
2022/11/07 12:43:08;;;;;;;9.68;1.95;;;15.40;98.30;;;;;;5098267;28;20093;-62
2022/11/07 12:46:01;;;;;;;7.68;2.15;;;15.40;98.30;;;;;;5090351;28;20036;-64
2022/11/07 12:48:42;;;;;;;4.47;1.67;;;15.50;98.20;;;;;;5089279;28;20047;-65
2022/11/07 12:51:33;;;;;;;6.00;1.50;;;15.50;98.10;;;;;;5074831;28;20025;-65
2022/11/07 12:54:05;;;;;;;9.43;2.42;;;15.60;98.10;;;;;;5071884;28;20037;-64
2022/11/07 12:56:34;;;;;;;9.65;1.90;;;15.60;97.90;;;;;;5078000;28;20038;-63
2022/11/07 12:59:08;;;;;;;7.78;1.73;;;15.60;97.70;;;;;;5069284;28;20476;-65
2022/11/07 13:01:47;;;;;;;8.35;2.05;;;15.50;97.90;;;;;;5089061;28;20051;-66
2022/11/07 13:04:19;;;;;;;8.27;2.40;;;15.40;97.90;;;;;;5093382;28;20020;-62
2022/11/07 13:07:06;;;;;;;11.88;2.40;;;15.40;97.90;;;;;;5095635;28;20168;-65
2022/11/07 13:09:49;;;;;;;5.32;1.88;;;15.40;97.90;;;;;;5086068;28;20029;-63